Skip Navigation

Christman Field Latest Observations

Switch to english unitsOther observation timesWeekly graphs

Date Time
MST
Temp
°C
RH
%
DewPt
°C
Wind
m/s
Dir
°
Gust
m/s
Dir
°
Press
hPa
Solar
W/m^2
Prec
mm
2017-10-19 05:50 1.5 61.7 -5.0 0.8 93.3 1.0 89.5 841.74 0.2 0.00
2017-10-19 05:45 1.3 61.4 -5.3 1.3 89.6 2.0 83.3 841.77 0.1 0.00
2017-10-19 05:40 0.8 64.9 -5.0 1.0 99.6 1.4 99.6 842.28 0.1 0.00
2017-10-19 05:35 1.1 63.7 -5.0 1.2 98.3 1.7 90.2 841.91 0.1 0.00
2017-10-19 05:30 1.2 63.0 -5.0 1.1 79.8 1.6 79.8 841.59 0.1 0.00
2017-10-19 05:25 1.4 63.9 -4.7 0.5 79.72 0.8 79.72 841.88 0.1 0.00
2017-10-19 05:20 1.2 63.5 -5.0 0.0 79.8 0.0 79.8 841.44 0.0 0.00
2017-10-19 05:15 1.2 63.6 -4.9 0.1 95 0.4 98.1 840.81 0.1 0.00
2017-10-19 05:10 1.5 62.7 -4.8 0.1 98.1 0.5 98.1 840.98 0.1 0.00
2017-10-19 05:05 3.2 56.7 -4.5 0.0 87.1 0.3 87.2 840.97 0.1 0.00
2017-10-19 05:00 3.8 48.6 -6.1 0.2 87 0.5 82 840.71 0.1 0.00
2017-10-19 04:55 2.9 53.0 -5.7 0.5 81.7 0.8 83.2 838.65 0.1 0.00
2017-10-19 04:50 2.9 56.0 -5.0 0.6 83.4 0.9 85.7 838.22 0.1 0.00
2017-10-19 04:45 3.3 53.0 -5.4 1.2 85.7 1.9 89.9 839.83 0.1 0.00
2017-10-19 04:40 3.0 53.5 -5.5 1.9 87.5 2.2 89.2 842.22 0.1 0.00
2017-10-19 04:35 2.9 54.9 -5.3 1.7 89.5 2.2 90 842.56 0.1 0.00
2017-10-19 04:30 2.0 56.0 -5.9 2.0 90.3 2.3 94.2 842.33 0.1 0.00
2017-10-19 04:25 1.1 64.8 -4.8 1.9 91.7 2.2 98 841.99 0.1 0.00
2017-10-19 04:20 1.4 63.2 -4.8 1.8 96.2 2.0 93.1 842.20 0.1 0.00
2017-10-19 04:15 1.6 62.6 -4.8 1.9 79.36 2.2 91.9 842.01 0.1 0.00
2017-10-19 04:10 1.7 61.6 -4.9 1.9 91.3 2.2 91.1 842.34 0.1 0.00
2017-10-19 04:05 2.1 59.3 -5.0 0.5 90.7 1.7 90.8 841.31 0.1 0.00
2017-10-19 04:00 1.8 58.5 -5.5 0.0 322 0.0 322 839.66 0.1 0.00
2017-10-19 03:55 2.0 58.8 -5.3 0.6 322 1.3 322.7 839.73 0.0 0.00
2017-10-19 03:50 1.5 58.1 -5.8 0.5 322.6 1.0 322.2 841.07 0.1 0.00
2017-10-19 03:45 2.2 58.9 -5.0 0.0 319.7 0.0 319.7 840.26 0.1 0.00
2017-10-19 03:40 2.1 52.8 -6.6 0.2 319.7 0.7 319.7 841.39 0.1 0.00
2017-10-19 03:35 1.9 59.1 -5.2 0.4 319.7 0.7 319.7 840.68 0.1 0.00
2017-10-19 03:30 1.9 56.0 -5.9 0.8 319.7 1.0 319.7 840.47 0.1 0.00
2017-10-19 03:25 1.6 58.5 -5.7 0.7 321.9 1.7 322.1 841.66 0.1 0.00